createdAt,value
2022-11-05T00:00:29.903Z,100.00
2022-11-05T00:03:15.280Z,100.00
2022-11-05T00:06:01.371Z,100.00
2022-11-05T00:08:46.652Z,100.00
2022-11-05T00:11:18.080Z,100.00
2022-11-05T00:14:04.022Z,100.00
2022-11-05T00:16:45.091Z,100.00
2022-11-05T00:19:13.647Z,100.00
2022-11-05T00:21:58.965Z,100.00
2022-11-05T00:24:44.430Z,100.00
2022-11-05T00:27:12.388Z,100.00
2022-11-05T00:29:40.130Z,100.00
2022-11-05T00:32:09.198Z,100.00
2022-11-05T00:34:37.107Z,100.00
2022-11-05T00:37:04.741Z,100.00
2022-11-05T00:39:32.434Z,100.00
2022-11-05T00:42:17.826Z,100.00
2022-11-05T00:45:01.991Z,100.00
2022-11-05T00:47:49.125Z,100.00
2022-11-05T00:50:16.942Z,100.00
2022-11-05T00:52:57.183Z,100.00
2022-11-05T00:55:28.233Z,100.00
2022-11-05T00:57:57.032Z,100.00
2022-11-05T01:00:26.947Z,100.00
2022-11-05T01:02:58.662Z,100.00
2022-11-05T01:05:27.002Z,100.00
2022-11-05T01:07:55.132Z,100.00
2022-11-05T01:10:23.449Z,100.00
2022-11-05T01:12:51.452Z,100.00
2022-11-05T01:15:20.190Z,100.00
2022-11-05T01:17:47.728Z,100.00
2022-11-05T01:20:17.296Z,100.00
2022-11-05T01:22:45.006Z,100.00
2022-11-05T01:25:12.689Z,100.00
2022-11-05T01:27:40.625Z,100.00
2022-11-05T01:30:10.093Z,100.00
2022-11-05T01:32:38.580Z,100.00
2022-11-05T01:35:07.937Z,100.00
2022-11-05T01:37:37.116Z,100.00
2022-11-05T01:40:05.571Z,100.00
2022-11-05T01:42:34.169Z,100.00
2022-11-05T01:45:05.135Z,100.00
2022-11-05T01:47:56.218Z,100.00
2022-11-05T01:50:31.435Z,100.00
2022-11-05T01:53:06.696Z,100.00
2022-11-05T01:55:39.112Z,100.00
2022-11-05T01:58:10.563Z,100.00
2022-11-05T02:00:38.986Z,100.00
2022-11-05T02:03:06.954Z,100.00
2022-11-05T02:05:35.397Z,100.00
2022-11-05T02:08:04.798Z,100.00
2022-11-05T02:10:33.311Z,100.00
2022-11-05T02:13:01.021Z,100.00
2022-11-05T02:15:41.082Z,100.00
2022-11-05T02:18:21.779Z,100.00
2022-11-05T02:21:01.321Z,100.00
2022-11-05T02:24:04.734Z,100.00
2022-11-05T02:27:08.117Z,100.00
2022-11-05T02:30:04.428Z,100.00
2022-11-05T02:32:50.205Z,100.00
2022-11-05T02:35:36.100Z,100.00
2022-11-05T02:38:09.326Z,100.00
2022-11-05T02:40:46.865Z,100.00
2022-11-05T02:43:23.650Z,100.00
2022-11-05T02:46:01.078Z,100.00
2022-11-05T02:48:38.187Z,100.00
2022-11-05T02:51:13.868Z,100.00
2022-11-05T02:53:48.802Z,100.00
2022-11-05T02:56:21.375Z,100.00
2022-11-05T02:58:49.201Z,100.00
2022-11-05T03:01:17.220Z,100.00
2022-11-05T03:03:49.259Z,100.00
2022-11-05T03:06:48.614Z,100.00
2022-11-05T03:09:46.523Z,100.00
2022-11-05T03:12:26.797Z,100.00
2022-11-05T03:15:01.166Z,100.00
2022-11-05T03:17:37.571Z,100.00
2022-11-05T03:20:17.526Z,100.00
2022-11-05T03:22:50.481Z,100.00
2022-11-05T03:25:22.593Z,100.00
2022-11-05T03:28:32.327Z,100.00
2022-11-05T03:31:00.946Z,100.00
2022-11-05T03:33:32.933Z,100.00
2022-11-05T03:36:06.854Z,100.00
2022-11-05T03:38:38.269Z,100.00
2022-11-05T03:41:09.719Z,100.00
2022-11-05T03:43:41.432Z,100.00
2022-11-05T03:46:12.814Z,100.00
2022-11-05T03:48:45.403Z,100.00
2022-11-05T03:51:20.562Z,100.00
2022-11-05T03:53:52.930Z,100.00
2022-11-05T03:56:28.217Z,100.00
2022-11-05T03:58:59.092Z,100.00
2022-11-05T04:01:27.763Z,100.00
2022-11-05T04:03:55.544Z,100.00
2022-11-05T04:06:42.278Z,100.00
2022-11-05T04:09:37.146Z,100.00
2022-11-05T04:12:22.561Z,100.00
2022-11-05T04:14:50.255Z,100.00
2022-11-05T04:17:16.837Z,100.00
2022-11-05T04:20:03.410Z,100.00
2022-11-05T04:22:51.975Z,100.00
2022-11-05T04:25:21.177Z,100.00
2022-11-05T04:27:49.175Z,100.00
2022-11-05T04:30:18.358Z,100.00
2022-11-05T04:33:00.409Z,100.00
2022-11-05T04:35:29.792Z,100.00
2022-11-05T04:37:58.825Z,100.00
2022-11-05T04:40:27.236Z,100.00
2022-11-05T04:42:55.926Z,100.00
2022-11-05T04:45:24.350Z,100.00
2022-11-05T04:47:52.210Z,100.00
2022-11-05T04:50:20.082Z,100.00
2022-11-05T04:52:47.691Z,100.00
2022-11-05T04:55:17.116Z,100.00
2022-11-05T04:57:45.111Z,100.00
2022-11-05T05:00:13.212Z,100.00
2022-11-05T05:02:40.782Z,100.00
2022-11-05T05:05:08.636Z,100.00
2022-11-05T05:07:36.438Z,100.00
2022-11-05T05:10:06.521Z,100.00
2022-11-05T05:12:36.319Z,100.00
2022-11-05T05:15:04.728Z,100.00
2022-11-05T05:17:32.368Z,100.00
2022-11-05T05:20:17.733Z,100.00
2022-11-05T05:22:45.417Z,100.00
2022-11-05T05:25:13.212Z,100.00
2022-11-05T05:27:42.187Z,100.00
2022-11-05T05:30:11.236Z,100.00
2022-11-05T05:32:39.276Z,100.00
2022-11-05T05:35:07.619Z,100.00
2022-11-05T05:37:35.345Z,100.00
2022-11-05T05:40:03.013Z,100.00
2022-11-05T05:42:30.649Z,100.00
2022-11-05T05:44:59.654Z,100.00
2022-11-05T05:47:27.326Z,100.00
2022-11-05T05:49:54.951Z,100.00
2022-11-05T05:52:22.723Z,100.00
2022-11-05T05:54:50.408Z,100.00
2022-11-05T05:57:18.180Z,100.00
2022-11-05T05:59:45.829Z,100.00
2022-11-05T06:02:14.813Z,100.00
2022-11-05T06:04:42.519Z,100.00
2022-11-05T06:07:10.157Z,100.00
2022-11-05T06:09:37.731Z,100.00
2022-11-05T06:12:06.027Z,100.00
2022-11-05T06:14:33.819Z,100.00
2022-11-05T06:17:01.449Z,100.00
2022-11-05T06:19:30.429Z,100.00
2022-11-05T06:21:58.174Z,100.00
2022-11-05T06:24:25.884Z,100.00
2022-11-05T06:26:53.460Z,100.00
2022-11-05T06:29:21.196Z,100.00
2022-11-05T06:31:49.209Z,100.00
2022-11-05T06:34:17.196Z,100.00
2022-11-05T06:36:46.293Z,100.00
2022-11-05T06:39:14.355Z,100.00
2022-11-05T06:42:17.241Z,100.00
2022-11-05T06:44:29.789Z,100.00
2022-11-05T06:46:57.587Z,100.00
2022-11-05T06:49:25.637Z,100.00
2022-11-05T06:51:54.611Z,100.00
2022-11-05T06:54:22.230Z,100.00
2022-11-05T06:56:49.855Z,100.00
2022-11-05T06:59:17.559Z,100.00
2022-11-05T07:01:45.379Z,100.00
2022-11-05T07:04:13.280Z,100.00
2022-11-05T07:06:41.184Z,100.00
2022-11-05T07:09:10.162Z,100.00
2022-11-05T07:11:37.936Z,100.00
2022-11-05T07:14:05.678Z,100.00
2022-11-05T07:16:33.553Z,100.00
2022-11-05T07:19:01.466Z,100.00
2022-11-05T07:21:29.566Z,100.00
2022-11-05T07:23:57.461Z,100.00
2022-11-05T07:26:31.864Z,100.00
2022-11-05T07:29:01.910Z,100.00
2022-11-05T07:31:29.620Z,100.00
2022-11-05T07:33:59.049Z,100.00
2022-11-05T07:36:26.817Z,100.00
2022-11-05T07:38:59.929Z,100.00
2022-11-05T07:41:29.763Z,100.00
2022-11-05T07:43:57.400Z,100.00
2022-11-05T07:46:25.340Z,100.00
2022-11-05T07:48:53.105Z,100.00
2022-11-05T07:51:20.784Z,100.00
2022-11-05T07:53:48.465Z,100.00
2022-11-05T07:56:16.510Z,100.00
2022-11-05T07:58:45.443Z,100.00
2022-11-05T08:01:13.147Z,100.00
2022-11-05T08:03:40.957Z,100.00
2022-11-05T08:06:08.796Z,100.00
2022-11-05T08:08:36.546Z,100.00
2022-11-05T08:11:05.363Z,100.00
2022-11-05T08:13:33.420Z,100.00
2022-11-05T08:16:02.948Z,100.00
2022-11-05T08:18:32.450Z,100.00
2022-11-05T08:21:01.175Z,100.00
2022-11-05T08:23:30.731Z,100.00
2022-11-05T08:25:58.967Z,100.00
2022-11-05T08:28:27.173Z,100.00
2022-11-05T08:30:56.907Z,100.00
2022-11-05T08:33:27.461Z,100.00
2022-11-05T08:35:54.981Z,100.00
2022-11-05T08:38:22.636Z,100.00
2022-11-05T08:40:56.073Z,100.00
2022-11-05T08:43:24.297Z,100.00
2022-11-05T08:45:51.933Z,100.00
2022-11-05T08:48:20.031Z,100.00
2022-11-05T08:50:50.498Z,100.00
2022-11-05T08:53:18.294Z,100.00
2022-11-05T08:55:47.577Z,100.00
2022-11-05T08:58:17.260Z,100.00
2022-11-05T09:00:47.587Z,100.00
2022-11-05T09:03:15.935Z,100.00
2022-11-05T09:05:44.183Z,100.00
2022-11-05T09:08:15.457Z,100.00
2022-11-05T09:10:43.550Z,100.00
2022-11-05T09:13:16.847Z,100.00
2022-11-05T09:15:49.973Z,100.00
2022-11-05T09:18:19.236Z,100.00
2022-11-05T09:20:47.304Z,100.00
2022-11-05T09:23:16.908Z,100.00
2022-11-05T09:25:45.606Z,100.00
2022-11-05T09:28:16.802Z,100.00
2022-11-05T09:30:46.618Z,100.00
2022-11-05T09:33:15.383Z,100.00
2022-11-05T09:35:44.008Z,100.00
2022-11-05T09:38:12.327Z,100.00
2022-11-05T09:40:44.757Z,100.00
2022-11-05T09:43:19.030Z,100.00
2022-11-05T09:45:50.605Z,100.00
2022-11-05T09:48:25.027Z,100.00
2022-11-05T09:50:54.654Z,100.00
2022-11-05T09:53:24.395Z,100.00
2022-11-05T09:55:56.323Z,100.00
2022-11-05T09:58:30.498Z,100.00
2022-11-05T10:00:59.557Z,100.00
2022-11-05T10:03:31.023Z,100.00
2022-11-05T10:06:09.878Z,100.00
2022-11-05T10:08:42.778Z,100.00
2022-11-05T10:11:16.862Z,100.00
2022-11-05T10:13:48.344Z,100.00
2022-11-05T10:16:23.866Z,100.00
2022-11-05T10:18:55.520Z,100.00
2022-11-05T10:21:44.180Z,100.00
2022-11-05T10:24:15.662Z,100.00
2022-11-05T10:26:47.651Z,100.00
2022-11-05T10:29:23.702Z,100.00
2022-11-05T10:31:53.570Z,100.00
2022-11-05T10:34:23.987Z,100.00
2022-11-05T10:36:51.823Z,100.00
2022-11-05T10:39:20.840Z,100.00
2022-11-05T10:42:09.080Z,100.00
2022-11-05T10:44:40.830Z,100.00
2022-11-05T10:47:33.649Z,100.00
2022-11-05T10:50:03.111Z,100.00
2022-11-05T10:52:37.660Z,100.00
2022-11-05T10:55:15.517Z,100.00
2022-11-05T10:57:44.745Z,100.00
2022-11-05T11:00:23.877Z,99.68
2022-11-05T11:02:54.303Z,99.33
2022-11-05T11:05:26.409Z,99.39
2022-11-05T11:08:01.730Z,99.05
2022-11-05T11:10:34.937Z,97.75
2022-11-05T11:13:04.795Z,98.42
2022-11-05T11:15:35.149Z,98.33
2022-11-05T11:18:27.003Z,97.72
2022-11-05T11:20:54.793Z,97.91
2022-11-05T11:23:22.833Z,98.18
2022-11-05T11:25:53.964Z,97.88
2022-11-05T11:28:26.838Z,96.86
2022-11-05T11:31:05.018Z,97.22
2022-11-05T11:33:34.872Z,96.33
2022-11-05T11:36:06.145Z,95.42
2022-11-05T11:38:36.537Z,95.22
2022-11-05T11:41:25.078Z,94.16
2022-11-05T11:43:58.218Z,94.21
2022-11-05T11:46:33.957Z,93.99
2022-11-05T11:49:02.030Z,94.62
2022-11-05T11:51:36.880Z,95.53
2022-11-05T11:54:06.023Z,94.10
2022-11-05T11:56:44.835Z,95.05
2022-11-05T11:59:40.529Z,94.73
2022-11-05T12:02:39.193Z,93.89
2022-11-05T12:05:24.091Z,94.17
2022-11-05T12:07:54.669Z,94.00
2022-11-05T12:10:37.284Z,93.51
2022-11-05T12:13:25.226Z,94.24
2022-11-05T12:15:56.788Z,94.29
2022-11-05T12:18:36.807Z,93.81
2022-11-05T12:21:15.374Z,92.39
2022-11-05T12:24:08.260Z,92.64
2022-11-05T12:26:48.004Z,92.29
2022-11-05T12:29:35.696Z,91.91
2022-11-05T12:32:33.980Z,91.21
2022-11-05T12:35:13.413Z,91.80
2022-11-05T12:37:51.369Z,91.77
2022-11-05T12:40:35.777Z,91.82
2022-11-05T12:43:12.227Z,90.47
2022-11-05T12:45:46.840Z,91.68
2022-11-05T12:48:47.546Z,91.68
2022-11-05T12:51:28.777Z,92.16
2022-11-05T12:54:09.731Z,91.38
2022-11-05T12:56:41.698Z,91.81
2022-11-05T12:59:17.574Z,92.77
2022-11-05T13:01:50.676Z,93.10
2022-11-05T13:04:31.196Z,94.65
2022-11-05T13:07:01.912Z,94.61
2022-11-05T13:09:35.214Z,95.40
2022-11-05T13:12:07.148Z,94.91
2022-11-05T13:14:41.540Z,94.15
2022-11-05T13:17:15.191Z,94.90
2022-11-05T13:19:51.890Z,93.26
2022-11-05T13:22:29.021Z,92.43
2022-11-05T13:25:00.335Z,92.88
2022-11-05T13:27:44.100Z,92.82
2022-11-05T13:30:18.191Z,91.94
2022-11-05T13:32:50.317Z,92.81
2022-11-05T13:35:26.291Z,92.65
2022-11-05T13:38:16.972Z,92.66
2022-11-05T13:41:01.787Z,92.97
2022-11-05T13:43:45.863Z,93.80
2022-11-05T13:46:27.256Z,94.49
2022-11-05T13:49:13.996Z,94.42
2022-11-05T13:51:53.625Z,94.09
2022-11-05T13:54:46.979Z,94.45
2022-11-05T13:57:34.854Z,94.83
2022-11-05T14:00:11.625Z,94.56
2022-11-05T14:02:43.953Z,94.90
2022-11-05T14:05:25.052Z,94.29
2022-11-05T14:07:55.202Z,94.25
2022-11-05T14:10:32.373Z,93.83
2022-11-05T14:13:05.303Z,93.86
2022-11-05T14:15:33.282Z,93.89
2022-11-05T14:18:02.732Z,93.73
2022-11-05T14:20:45.974Z,92.95
2022-11-05T14:23:52.867Z,93.81
2022-11-05T14:26:23.941Z,93.77
2022-11-05T14:29:24.060Z,93.78
2022-11-05T14:32:10.771Z,95.11
2022-11-05T14:34:45.302Z,94.31
2022-11-05T14:37:24.859Z,94.92
2022-11-05T14:39:55.582Z,95.50
2022-11-05T14:42:29.165Z,96.03
2022-11-05T14:45:16.515Z,96.00
2022-11-05T14:47:51.606Z,96.50
2022-11-05T14:50:23.132Z,97.04
2022-11-05T14:52:55.624Z,96.57
2022-11-05T14:55:34.910Z,96.42
2022-11-05T14:58:26.727Z,97.51
2022-11-05T15:00:56.947Z,97.49
2022-11-05T15:03:42.613Z,96.85
2022-11-05T15:06:29.694Z,96.92
2022-11-05T15:09:09.322Z,97.91
2022-11-05T15:11:40.586Z,97.94
2022-11-05T15:14:21.277Z,98.51
2022-11-05T15:16:52.679Z,98.19
2022-11-05T15:19:27.229Z,99.10
2022-11-05T15:21:58.376Z,99.65
2022-11-05T15:24:28.862Z,99.63
2022-11-05T15:27:04.711Z,100.00
2022-11-05T15:29:34.196Z,100.00
2022-11-05T15:32:02.354Z,100.00
2022-11-05T15:34:32.007Z,100.00
2022-11-05T15:37:02.663Z,100.00
2022-11-05T15:39:40.276Z,100.00
2022-11-05T15:42:14.725Z,100.00
2022-11-05T15:44:44.210Z,100.00
2022-11-05T15:47:20.600Z,100.00
2022-11-05T15:49:51.893Z,100.00
2022-11-05T15:52:21.972Z,100.00
2022-11-05T15:55:08.879Z,100.00
2022-11-05T15:57:40.398Z,100.00
2022-11-05T16:00:17.741Z,100.00
2022-11-05T16:02:52.917Z,100.00
2022-11-05T16:05:21.290Z,100.00
2022-11-05T16:07:49.714Z,100.00
2022-11-05T16:10:20.438Z,100.00
2022-11-05T16:12:49.894Z,100.00
2022-11-05T16:15:24.172Z,100.00
2022-11-05T16:17:55.265Z,100.00
2022-11-05T16:20:27.316Z,100.00
2022-11-05T16:22:56.655Z,100.00
2022-11-05T16:25:28.921Z,100.00
2022-11-05T16:27:58.884Z,100.00
2022-11-05T16:30:27.032Z,100.00
2022-11-05T16:32:55.876Z,100.00
2022-11-05T16:35:28.274Z,100.00
2022-11-05T16:37:56.188Z,100.00
2022-11-05T16:40:26.395Z,100.00
2022-11-05T16:42:55.459Z,100.00
2022-11-05T16:45:25.895Z,100.00
2022-11-05T16:47:53.561Z,100.00
2022-11-05T16:50:25.252Z,100.00
2022-11-05T16:52:53.215Z,100.00
2022-11-05T16:55:21.264Z,100.00
2022-11-05T16:57:52.099Z,100.00
2022-11-05T17:00:21.480Z,100.00
2022-11-05T17:02:51.395Z,100.00
2022-11-05T17:05:22.939Z,100.00
2022-11-05T17:07:50.846Z,100.00
2022-11-05T17:10:18.906Z,100.00
2022-11-05T17:12:47.199Z,100.00
2022-11-05T17:15:20.866Z,100.00
2022-11-05T17:17:50.493Z,100.00
2022-11-05T17:20:27.998Z,100.00
2022-11-05T17:22:56.177Z,100.00
2022-11-05T17:25:24.644Z,100.00
2022-11-05T17:27:52.327Z,100.00
2022-11-05T17:30:21.205Z,100.00
2022-11-05T17:32:50.548Z,100.00
2022-11-05T17:35:18.962Z,100.00
2022-11-05T17:37:47.042Z,100.00
2022-11-05T17:40:17.378Z,100.00
2022-11-05T17:42:45.202Z,100.00
2022-11-05T17:45:14.138Z,100.00
2022-11-05T17:47:42.294Z,100.00
2022-11-05T17:50:14.177Z,100.00
2022-11-05T17:52:41.976Z,100.00
2022-11-05T17:55:16.642Z,100.00
